Tiempo atmosférico en la estación meteorológica de Boadilla Fuente San Esteban, Salamanca (785 m.)



Fecha
DESCASC
Temp. máxima en grados centígrados (hora)
DESCASC
Temp. mínima en grados centígrados (hora)
DESCASC
Temp. media en grados centígrados
DESCASC
Racha de viento máxima en m/sg (hora)
DESCASC
Velocidad máxima media en intervalos de 10 minutos(hora)
DESCASC
Precipitaciones diarias en mm
DESCASC
Precipitaciones de 00:00 a 06:00 en mm
DESCASC
Precipitaciones de 06:00 a 12:00 en mm
DESCASC
Precipitaciones de 12:00 a 18:00 en mm
DESCASC
Precipitaciones de 18:00 a 24:00 en mm
DESCASC
23-05-2018 23.8 (18:10) 9.5 (06:40) 16.6 6.94 (20:30) 4.44 (19:50) 0 0 0 0 0
22-05-2018 23.4 (16:40) 8.1 (06:50) 15.8 6.11 (16:50) 4.17 (16:50) 0 0 0 0 0
21-05-2018 21.9 (18:40) 7.4 (06:00) 14.6 8.06 (14:50) 4.72 (16:20) 0.2 0 0.2 0 0
20-05-2018 19.5 (13:50) 9.6 (00:00) 14.6 11.67 (15:40) 5.83 (15:40) 4.2 0 1.2 3 0
19-05-2018 22.8 (17:10) 6.3 (00:00) 14.5 10.56 (17:30) 5.56 (17:30) 0.4 0.2 0 0 0.2
18-05-2018 19.5 (20:20) 8.2 (00:00) 13.8 9.17 (14:50) 5.83 (14:50) 1.6 1.4 0 0 0.2
17-05-2018 23.5 (17:40) 6.6 (00:00) 15 6.11 (17:00) 3.89 (01:40) 3.4 0 0 0 3.4
16-05-2018 22.6 (18:50) 6.3 (00:00) 14.5 8.06 (14:40) 5.28 (09:50) 0 0 0 0 0
15-05-2018 20.3 (17:40) 2.7 (00:00) 11.5 11.11 (11:00) 7.5 (10:20) 0 0 0 0 0
14-05-2018 17.8 (18:20) 5 (00:00) 11.4 10 (15:20) 6.39 (15:30) 0 0 0 0 0
13-05-2018 13.1 (18:10) 0.3 (00:00) 6.7 8.33 (20:30) 5.56 (20:30) 0 0 0 0 0
12-05-2018 13.4 (15:50) 4.9 (00:00) 9.1 11.11 (06:40) 6.94 (17:30) 0 0 0 0 0
11-05-2018 21.3 (16:30) 7.3 (07:40) 14.3 11.11 (14:00) 6.39 (14:10) 0 0 0 0 0
10-05-2018 20.4 (18:30) 7.6 (00:00) 14 12.78 (10:00) 8.89 (10:00) 0 0 0 0 0
09-05-2018 20.6 (18:00) 10.5 (00:00) 15.6 9.44 (20:10) 6.11 (20:10) 0 0 0 0 0
08-05-2018 24.3 (17:30) 12.1 (00:00) 18.2 8.06 (20:10) 5.28 (20:10) 0 0 0 0 0
07-05-2018 23.2 (16:00) 9.6 (00:00) 16.4 8.89 (19:50) 6.67 (16:50) 0.4 0 0.2 0.2 0
06-05-2018 21.5 (16:10) 7.1 (00:00) 14.3 13.06 (18:10) 6.67 (17:20) 3.6 0 0 0 3.6
05-05-2018 19 (19:30) 3.9 (00:00) 11.5 8.06 (17:30) 4.72 (08:30) 0 0 0 0 0
04-05-2018 15.5 (18:20) 1.9 (00:00) 8.7 14.17 (10:10) 10.28 (10:10) 0 0 0 0 0
03-05-2018 14.8 (16:00) 6.5 (00:00) 10.7 8.89 (23:00) 6.39 (20:00) 0 0 0 0 0
02-05-2018 14.2 (17:00) 2.9 (00:00) 8.5 6.39 (13:30) 3.61 (16:30) 0 0 0 0 0
01-05-2018 13.6 (19:00) 1.6 (07:50) 7.6 6.67 (13:30) 3.89 (14:30) 0.2 0.2 0 0 0
30-04-2018 11.9 (19:00) 1.1 (00:00) 6.5 10.28 (20:30) 6.39 (20:30) 4.2 0 0 0 4.2
29-04-2018 9.7 (14:50) 3.5 (00:00) 6.6 15 (13:40) 9.72 (18:20) 4.2 2.4 1 0.2 0.6
28-04-2018 12.3 (16:00) 4.2 (00:00) 8.3 8.89 (14:30) 5.28 (14:30) 1.2 0 0 0 1.2

Gráficas

Temp. máximas Temp. mínimas Temp. medias Precipitaciones Rachas de viento máximas Velocidades máximas media en intervalos de 10 minutos

Datos horarios

Fecha y hora oficial Temperatura (ºC) Velocidad del viento (km/h) Dirección del viento Racha (km/h) Dirección de racha Precipitación (mm) Presión (hPa) Tendencia (hPa) Humedad (%)
2018-05-27 23:00:00 -- -- -- -- -- -- -- -- --
2018-05-27 22:00:00 -- -- -- -- -- -- -- -- --
2018-05-27 21:00:00 12.7 5 Sur 24 Sudoeste 2.8 -- -- 94
2018-05-27 20:00:00 14 14 Sur 23 Sudoeste 1 -- -- 93
2018-05-27 19:00:00 14.4 8 Sur 15 Sudoeste 2.6 -- -- 92
2018-05-27 18:00:00 14.4 11 Sur 27 Sur 4.6 -- -- 93
2018-05-27 17:00:00 16 15 Sur 27 Sudeste 0.4 -- -- 79
2018-05-27 16:00:00 20 7 Noroeste 17 Noroeste 0 -- -- 58
2018-05-27 15:00:00 19.9 11 Noroeste 22 Oeste 0 -- -- 62
2018-05-27 14:00:00 19.8 10 Oeste 23 Sudoeste 0 -- -- 62
2018-05-27 13:00:00 19 10 Noroeste 19 Noroeste 0 -- -- 62
2018-05-27 12:00:00 18.5 7 Oeste 13 Oeste 0.2 -- -- 66
2018-05-27 11:00:00 16.6 5 Este 13 Este 0 -- -- 75
2018-05-27 10:00:00 14.3 5 Este 8 Este 0 -- -- 88
2018-05-27 09:00:00 12.4 3 Nordeste 6 Sudeste 0 -- -- 97
2018-05-27 08:00:00 11 2 Sudeste 7 Sudeste 0 -- -- 97
2018-05-27 07:00:00 10.6 4 Sudeste 8 Sudeste 0 -- -- 97
2018-05-27 06:00:00 10.4 5 Sudeste 8 Sudeste 0 -- -- 97
2018-05-27 05:00:00 10.4 0 Calma 8 Sudeste 0 -- -- 97
2018-05-27 04:00:00 10.3 4 Sudeste 10 Sudeste 0 -- -- 97
2018-05-27 03:00:00 10.1 6 Sur 13 Sudeste 0 -- -- 97
2018-05-27 02:00:00 9.5 6 Sudeste 10 Sudeste 0 -- -- 96
2018-05-27 01:00:00 10 5 Sudeste 9 Sudeste 0 -- -- 96
2018-05-27 00:00:00 10.5 2 Sur 5 Sudoeste 0 -- -- 93
2018-05-26 23:00:00 12.2 5 Sudoeste 11 Sur 0 -- -- 92
2018-05-26 22:00:00 13.4 0 Calma 4 Este 0 -- -- 89
2018-05-26 21:00:00 14.6 0 Calma 7 Noroeste 0 -- -- 86
2018-05-26 20:00:00 14.8 4 Noroeste 15 Oeste 0 -- -- 84
2018-05-26 19:00:00 14.2 9 Oeste 26 Oeste 0 -- -- 86
2018-05-26 18:00:00 17.3 5 Nordeste 17 Este 0 -- -- 73
2018-05-26 17:00:00 17.6 11 Este 16 Este 0 -- -- 74
2018-05-26 16:00:00 15.7 7 Sur 19 Sudoeste 0.4 -- -- 76
2018-05-26 15:00:00 18.8 14 Sur 25 Oeste 0 -- -- 62
2018-05-26 14:00:00 17.2 12 Oeste 20 Sudoeste 0 -- -- 65
2018-05-26 13:00:00 16 18 Sudoeste 28 Sudoeste 0 -- -- 69
2018-05-26 12:00:00 15.4 11 Oeste 21 Oeste 0 -- -- 70
2018-05-26 11:00:00 15.1 5 Sur 15 Oeste 0 -- -- 74
2018-05-26 10:00:00 13.5 4 Sur 9 Sur 0 -- -- 80
2018-05-26 09:00:00 11.3 6 Sudeste 9 Sudeste 0 -- -- 92
2018-05-26 08:00:00 9 4 Este 6 Este 0 -- -- 97
2018-05-26 07:00:00 9.1 5 Sudeste 12 Sur 0 -- -- 96
2018-05-26 06:00:00 9.8 0 Calma 9 Sur 0.2 -- -- 98
2018-05-26 05:00:00 9.7 6 Sur 9 Sur 0 -- -- 98
2018-05-26 04:00:00 9.9 4 Sudeste 5 Sudeste 0 -- -- 97
2018-05-26 03:00:00 10.6 3 Sur 5 Sudoeste 0 -- -- 98
2018-05-26 02:00:00 10.3 3 Oeste 6 Sudoeste 0 -- -- 98
2018-05-26 01:00:00 9.8 0 Calma 6 Sudoeste 0 -- -- 97
2018-05-26 00:00:00 10.6 4 Sudoeste 6 Sudoeste 0 -- -- 96
2018-05-25 23:00:00 11.3 0 Calma 14 Oeste 0 -- -- 95
2018-05-25 22:00:00 11.7 6 Este 8 Este 0 -- -- 94
2018-05-25 21:00:00 12.7 3 Este 7 Nordeste 0 -- -- 94
2018-05-25 20:00:00 13.1 5 Nordeste 8 Nordeste 0 -- -- 91
2018-05-25 19:00:00 13.6 6 Nordeste 13 Este 0 -- -- 86
2018-05-25 18:00:00 13.4 9 Este 19 Este 0 -- -- 89
2018-05-25 17:00:00 12.3 6 Este 17 Nordeste 0.2 -- -- 91
2018-05-25 16:00:00 12.3 5 Sudeste 45 Sudeste 6.6 -- -- 87
2018-05-25 15:00:00 14.5 12 Sur 25 Sudeste 0.4 -- -- 78
2018-05-25 14:00:00 16.7 8 Sudoeste 16 Sudoeste 0 -- -- 64
2018-05-25 13:00:00 15.5 4 Sudoeste 9 Oeste 0 -- -- 76
2018-05-25 12:00:00 13.7 5 Oeste 16 Sudoeste 0 -- -- 84
2018-05-25 11:00:00 13.2 5 Sudoeste 13 Sur 0 -- -- 88
2018-05-25 10:00:00 12.4 6 Sudoeste 13 Sudoeste 0 -- -- 93
2018-05-25 09:00:00 11.7 10 Sudoeste 16 Sudoeste 0 -- -- 96
2018-05-25 08:00:00 11.5 8 Sudoeste 12 Oeste 0 -- -- 96
2018-05-25 07:00:00 11.8 4 Oeste 18 Oeste 0 -- -- 96
2018-05-25 06:00:00 12.7 3 Oeste 6 Sur 0 -- -- 97
2018-05-25 05:00:00 12.6 5 Sur 8 Sur 0 -- -- 97
2018-05-25 04:00:00 13 2 Norte 8 Nordeste 0 -- -- 97
2018-05-25 03:00:00 13 3 Norte 5 Sudoeste 0 -- -- 97
2018-05-25 02:00:00 12.8 2 Norte 8 Sur 0 -- -- 97
2018-05-25 01:00:00 12.5 4 Sur 15 Sur 0 -- -- 97
2018-05-25 00:00:00 12.9 7 Sur 14 Sudeste 1.8 -- -- 95
2018-05-24 23:00:00 13.4 8 Sur 30 Este 3.8 -- -- 94
2018-05-24 22:00:00 14.8 22 Este 34 Sudeste 1.6 -- -- 88
2018-05-24 21:00:00 14.4 2 Norte 21 Nordeste 2.2 -- -- 93
2018-05-24 20:00:00 15.8 11 Nordeste 22 Este 6.6 -- -- 88
2018-05-24 19:00:00 17.9 9 Norte 18 Norte 0 -- -- 82
2018-05-24 18:00:00 17.4 9 Norte 21 Norte 0 -- -- 83
2018-05-24 17:00:00 16.2 13 Norte 20 Norte 0 -- -- 89
2018-05-24 16:00:00 15.3 15 Nordeste 24 Nordeste 0.2 -- -- 90
2018-05-24 15:00:00 14.6 14 Nordeste 21 Norte 1.4 -- -- 94
2018-05-24 14:00:00 14 13 Norte 23 Norte 1 -- -- 94
2018-05-24 13:00:00 13.9 12 Norte 16 Norte 1.2 -- -- 95
2018-05-24 12:00:00 13.6 5 Sur 18 Sur 2 -- -- 94
2018-05-24 11:00:00 13.6 11 Norte 17 Norte 0.2 -- -- 92
2018-05-24 10:00:00 13.8 10 Oeste 21 Sudoeste 0 -- -- 87
2018-05-24 09:00:00 13.7 9 Este 14 Este 0 -- -- 85
2018-05-24 08:00:00 12.1 3 Nordeste 7 Este 0 -- -- 91
2018-05-24 07:00:00 11.4 5 Nordeste 8 Este 0 -- -- 91
2018-05-24 06:00:00 11.8 2 Sur 16 Sudeste 0 -- -- 87
2018-05-24 05:00:00 10.9 3 Este 14 Este 0 -- -- 86
2018-05-24 04:00:00 10.3 9 Este 21 Norte 0 -- -- 90
2018-05-24 03:00:00 11.2 8 Sudeste 10 Sudeste 0 -- -- 88
2018-05-24 02:00:00 11.6 2 Nordeste 9 Sudeste 0 -- -- 85
2018-05-24 01:00:00 12.5 0 Calma 11 Sudeste 0 -- -- 83
2018-05-24 00:00:00 13.2 8 Sur 12 Sudeste 0 -- -- 79
2018-05-23 23:00:00 15.3 9 Sur 12 Sur 0 -- -- 66
2018-05-23 22:00:00 17.2 6 Sudoeste 12 Sudoeste 0 -- -- 60
2018-05-23 21:00:00 20.6 10 Sudoeste 25 Sudoeste 0 -- -- 51
2018-05-23 20:00:00 22.4 13 Sudoeste 24 Oeste 0 -- -- 47
2018-05-23 19:00:00 22.4 13 Sudoeste 23 Sudoeste 0 -- -- 43
2018-05-23 18:00:00 23.6 14 Sudoeste 24 Sudoeste 0 -- -- 44
2018-05-23 17:00:00 22.9 10 Sudoeste 19 Oeste 0 -- -- 45
2018-05-23 16:00:00 23.3 9 Oeste 24 Oeste 0 -- -- 48
2018-05-23 15:00:00 22.5 5 Sudoeste 14 Sudoeste 0 -- -- 51
2018-05-23 14:00:00 21.5 9 Oeste 15 Oeste 0 -- -- 55
2018-05-23 13:00:00 21.6 9 Sudoeste 16 Sudoeste 0 -- -- 56
2018-05-23 12:00:00 20.4 6 Oeste 16 Nordeste 0 -- -- 60
2018-05-23 11:00:00 19.6 5 Nordeste 9 Nordeste 0 -- -- 64
2018-05-23 10:00:00 17.8 5 Este 9 Este 0 -- -- 70
2018-05-23 09:00:00 14.8 2 Este 9 Sudeste 0 -- -- 82
2018-05-23 08:00:00 11.6 3 Sudeste 11 Sudeste 0 -- -- 93
2018-05-23 07:00:00 9.5 5 Sudeste 11 Sudeste 0 -- -- 92
2018-05-23 06:00:00 10.6 8 Sudeste 13 Sudeste 0 -- -- 89
2018-05-23 05:00:00 10.5 8 Sudeste 10 Sudeste 0 -- -- 91
2018-05-23 04:00:00 10.4 8 Sudeste 10 Sudeste 0 -- -- 91
2018-05-23 03:00:00 11.1 4 Sur 10 Sudeste 0 -- -- 89
2018-05-23 02:00:00 11.7 8 Sudeste 12 Sudeste 0 -- -- 88
2018-05-23 01:00:00 12.7 6 Sudeste 8 Sudeste 0 -- -- 85
2018-05-23 00:00:00 14.1 0 Calma 8 Sur 0 -- -- 77
2018-05-22 23:00:00 15.8 7 Sur 10 Sudoeste 0 -- -- 68
2018-05-22 22:00:00 17.6 7 Sudoeste 12 Sudoeste 0 -- -- 62
2018-05-22 21:00:00 20.8 9 Sudoeste 21 Sudoeste 0 -- -- 51
2018-05-22 20:00:00 22.4 14 Sudoeste 22 Sudoeste 0 -- -- 47
2018-05-22 19:00:00 22.3 10 Sudoeste 19 Sudoeste 0 -- -- 49
2018-05-22 18:00:00 22.1 10 Sudoeste 22 Sudoeste 0 -- -- 47
2018-05-22 17:00:00 23.4 10 Sudoeste 22 Sudoeste 0 -- -- 46
2018-05-22 16:00:00 23.1 6 Sudoeste 18 Sur 0 -- -- 45
2018-05-22 15:00:00 22.1 7 Sur 19 Oeste 0 -- -- 48
2018-05-22 14:00:00 20.9 7 Oeste 19 Sudoeste 0 -- -- 51
2018-05-22 13:00:00 20.5 9 Oeste 15 Oeste 0 -- -- 52
2018-05-22 12:00:00 19.8 7 Oeste 16 Sur 0 -- -- 60
2018-05-22 11:00:00 19 9 Sudoeste 17 Sudoeste 0 -- -- 59
2018-05-22 10:00:00 17.4 3 Sudeste 10 Sudeste 0 -- -- 60
2018-05-22 09:00:00 13 4 Sudeste 7 Sudeste 0 -- -- 79
2018-05-22 08:00:00 9.2 3 Este 9 Sudeste 0 -- -- 93
2018-05-22 07:00:00 8.1 4 Sudeste 12 Sudeste 0 -- -- 92
2018-05-22 06:00:00 8.6 3 Sudeste 9 Sur 0 -- -- 91
2018-05-22 05:00:00 9.3 10 Sur 15 Sur 0 -- -- 91
2018-05-22 04:00:00 9.6 8 Sudeste 10 Sudeste 0 -- -- 90
2018-05-22 03:00:00 11.2 10 Sur 14 Sudoeste 0 -- -- 83
2018-05-22 02:00:00 11.5 9 Sudoeste 12 Sudoeste 0 -- -- 79
2018-05-22 01:00:00 12.4 7 Sudoeste 14 Sudoeste 0 -- -- 75
2018-05-22 00:00:00 13 7 Sur 12 Sur 0 -- -- 77
2018-05-21 23:00:00 13.4 5 Sur 14 Sudoeste 0 -- -- 79
2018-05-21 22:00:00 16.2 5 Sudoeste 12 Sudoeste 0 -- -- 70
2018-05-21 21:00:00 19.7 9 Oeste 16 Oeste 0 -- -- 54
2018-05-21 20:00:00 21.6 7 Oeste 19 Sudoeste 0 -- -- 48
2018-05-21 19:00:00 21.3 12 Sur 21 Sur 0 -- -- 54
2018-05-21 18:00:00 20.5 12 Sur 22 Sudeste 0 -- -- 53
2018-05-21 17:00:00 17.9 16 Sur 24 Sur 0 -- -- 64
2018-05-21 16:00:00 17.7 15 Sur 26 Sudoeste 0 -- -- 69
2018-05-21 15:00:00 19.4 12 Sudoeste 29 Oeste 0 -- -- 58
2018-05-21 14:00:00 20 11 Sudoeste 23 Oeste 0 -- -- 56
2018-05-21 13:00:00 19.1 11 Oeste 23 Oeste 0 -- -- 60
2018-05-21 12:00:00 18 10 Sudoeste 22 Sudoeste 0 -- -- 62
2018-05-21 11:00:00 16.3 9 Oeste 17 Oeste 0.2 -- -- 65
2018-05-21 10:00:00 14.5 9 Noroeste 13 Noroeste 0 -- -- 79
2018-05-21 09:00:00 12.2 9 Sudeste 17 Sudeste 0 -- -- 81
2018-05-21 08:00:00 9 11 Sudeste 17 Sudeste 0 -- -- 89
2018-05-21 07:00:00 7.8 11 Sudeste 15 Sudeste 0 -- -- 93
2018-05-21 06:00:00 7.4 4 Sudeste 14 Sudeste 0 -- -- 92
2018-05-21 05:00:00 7.6 9 Sudeste 14 Sudeste 0 -- -- 93
2018-05-21 04:00:00 7.8 10 Sudeste 13 Sudeste 0 -- -- 93
2018-05-21 03:00:00 8.9 2 Este 10 Sur 0 -- -- 89
2018-05-21 02:00:00 9.9 2 Noroeste 13 Sur 0 -- -- 88
2018-05-21 01:00:00 10.8 10 Sur 15 Sur 0 -- -- 89
2018-05-21 00:00:00 9.6 5 Sur 9 Sur 0 -- -- 91
2018-05-20 23:00:00 11 6 Sudoeste 10 Sudoeste 0 -- -- 85
2018-05-20 22:00:00 12.4 6 Sudoeste 16 Sudoeste 0 -- -- 78
2018-05-20 21:00:00 14.5 8 Sudoeste 18 Sudoeste 0 -- -- 72
2018-05-20 20:00:00 15.5 11 Sudoeste 22 Sudoeste 0 -- -- 69
2018-05-20 19:00:00 14.7 15 Sudoeste 23 Sudoeste 0 -- -- 74
2018-05-20 18:00:00 14.3 12 Sudoeste 21 Oeste 0 -- -- 77
2018-05-20 17:00:00 13.9 9 Sudoeste 27 Sudeste 0 -- -- 83
2018-05-20 16:00:00 13 18 Sur 42 Sudeste 2.6 -- -- 81
2018-05-20 15:00:00 16.1 13 Nordeste 24 Nordeste 0.4 -- -- 70
2018-05-20 14:00:00 19.3 11 Oeste 24 Oeste 0 -- -- 54
2018-05-20 13:00:00 19 12 Oeste 21 Oeste 0 -- -- 57
2018-05-20 12:00:00 18.1 8 Sudoeste 15 Sur 0 -- -- 69
2018-05-20 11:00:00 15.5 5 Sur 10 Sudeste 0 -- -- 83
2018-05-20 10:00:00 13.7 5 Este 12 Este 0.4 -- -- 89
2018-05-20 09:00:00 13.3 10 Este 14 Este 0.8 -- -- 90
2018-05-20 08:00:00 10.7 5 Este 9 Este 0 -- -- 95
2018-05-20 07:00:00 10.1 0 Calma 5 Sudeste 0 -- -- 92
2018-05-20 06:00:00 10.8 4 Sudeste 5 Este 0 -- -- 92
2018-05-20 05:00:00 12.8 8 Sudeste 15 Sur 0 -- -- 87
2018-05-20 04:00:00 12.5 7 Sudoeste 11 Sudoeste 0 -- -- 89
2018-05-20 03:00:00 12.3 7 Sudoeste 12 Sur 0 -- -- 89
2018-05-20 02:00:00 11.6 9 Sudoeste 12 Sudoeste 0 -- -- 90
2018-05-20 01:00:00 11.6 6 Sudeste 10 Sudeste 0 -- -- 90
2018-05-20 00:00:00 13.4 6 Sudeste 10 Sur 0 -- -- 85
2018-05-19 23:00:00 14.6 6 Sudoeste 10 Sudoeste 0 -- -- 79
2018-05-19 22:00:00 15.3 4 Sudoeste 14 Sur 0 -- -- 74
2018-05-19 21:00:00 17.4 10 Sur 19 Sur 0 -- -- 68
2018-05-19 20:00:00 20.3 3 Oeste 10 Sudoeste 0 -- -- 52
2018-05-19 19:00:00 19.8 5 Sudoeste 30 Nordeste 0.2 -- -- 52
2018-05-19 18:00:00 20.6 5 Nordeste 38 Nordeste 0 -- -- 52
2018-05-19 17:00:00 22.6 10 Norte 22 Norte 0 -- -- 47
2018-05-19 16:00:00 21.9 7 Norte 25 Norte 0 -- -- 49
2018-05-19 15:00:00 21.1 9 Norte 25 Norte 0 -- -- 52
2018-05-19 14:00:00 20.8 10 Norte 20 Nordeste 0 -- -- 57
2018-05-19 13:00:00 19.2 10 Norte 20 Noroeste 0 -- -- 60
2018-05-19 12:00:00 18 8 Nordeste 13 Nordeste 0 -- -- 69
2018-05-19 11:00:00 16.2 8 Nordeste 15 Nordeste 0 -- -- 74
2018-05-19 10:00:00 13.8 7 Nordeste 17 Este 0 -- -- 87
2018-05-19 09:00:00 11.1 8 Nordeste 13 Nordeste 0 -- -- 95
2018-05-19 08:00:00 8.4 5 Este 9 Este 0 -- -- 99
2018-05-19 07:00:00 6.3 6 Norte 10 Norte 0 -- -- 96
2018-05-19 06:00:00 7.5 4 Sudeste 10 Este 0 -- -- 96
2018-05-19 05:00:00 7.9 4 Este 9 Este 0.2 -- -- 96
2018-05-19 04:00:00 8.2 5 Este 8 Este 0 -- -- 95
2018-05-19 03:00:00 8.5 4 Este 10 Este 0 -- -- 93
2018-05-19 02:00:00 9.6 3 Este 13 Este 0 -- -- 93
2018-05-19 01:00:00 10 5 Este 12 Nordeste 0 -- -- 94
2018-05-19 00:00:00 11.2 4 Este 10 Este 0 -- -- 90
2018-05-18 23:00:00 12.2 6 Este 9 Este 0 -- -- 90
2018-05-18 22:00:00 13.6 8 Nordeste 31 Nordeste 0.2 -- -- 86
2018-05-18 21:00:00 17.5 3 Sudeste 12 Este 0 -- -- 64
2018-05-18 20:00:00 19.2 5 Sudeste 14 Sudeste 0 -- -- 52
2018-05-18 19:00:00 18.9 6 Sudeste 14 Sur 0 -- -- 52
2018-05-18 18:00:00 19 6 Sur 17 Sudoeste 0 -- -- 55
2018-05-18 17:00:00 18.5 10 Sur 18 Sur 0 -- -- 57
2018-05-18 16:00:00 15.2 8 Sudeste 27 Sur 0 -- -- 72
2018-05-18 15:00:00 13.6 21 Sur 33 Sur 0 -- -- 80
2018-05-18 14:00:00 17.6 7 Noroeste 15 Norte 0 -- -- 56
2018-05-18 13:00:00 17.5 10 Nordeste 20 Norte 0 -- -- 70
2018-05-18 12:00:00 16 6 Norte 14 Norte 0 -- -- 74
2018-05-18 11:00:00 15 3 Este 15 Este 0 -- -- 74
2018-05-18 10:00:00 13.7 11 Nordeste 17 Este 0 -- -- 84
2018-05-18 09:00:00 11.3 12 Nordeste 16 Este 0 -- -- 97
2018-05-18 08:00:00 9.7 6 Este 9 Nordeste 0 -- -- 99
2018-05-18 07:00:00 8.7 6 Nordeste 18 Este 0 -- -- 97
2018-05-18 06:00:00 8.7 9 Este 15 Este 0 -- -- 96
2018-05-18 05:00:00 8.2 8 Nordeste 10 Este 0 -- -- 96
2018-05-18 04:00:00 9.3 10 Este 17 Este 0 -- -- 95
2018-05-18 03:00:00 9.7 12 Este 29 Este 0 -- -- 92
2018-05-18 02:00:00 10.2 16 Este 28 Este 0 -- -- 92
2018-05-18 01:00:00 10.7 19 Este 28 Este 1.4 -- -- 92
2018-05-18 00:00:00 11.8 4 Nordeste 11 Nordeste 1.4 -- -- 93
2018-05-17 23:00:00 12.5 10 Norte 14 Norte 1.6 -- -- 87
2018-05-17 22:00:00 14.3 5 Sur 19 Sudoeste 0.4 -- -- 82
2018-05-17 21:00:00 16.9 6 Sur 22 Sudeste 0 -- -- 68
2018-05-17 20:00:00 18.6 11 Este 18 Este 0 -- -- 55
2018-05-17 19:00:00 19.5 6 Sudeste 20 Sudeste 0 -- -- 48
2018-05-17 18:00:00 22.5 12 Noroeste 22 Noroeste 0 -- -- 40
2018-05-17 17:00:00 23.1 13 Noroeste 22 Noroeste 0 -- -- 39
2018-05-17 16:00:00 22.8 10 Oeste 21 Norte 0 -- -- 43
2018-05-17 15:00:00 21.7 9 Noroeste 22 Noroeste 0 -- -- 46
2018-05-17 14:00:00 20.7 10 Noroeste 18 Oeste 0 -- -- 51
2018-05-17 13:00:00 19.1 7 Noroeste 12 Noroeste 0 -- -- 54
2018-05-17 12:00:00 17.6 5 Noroeste 12 Norte 0 -- -- 61
2018-05-17 11:00:00 14.9 5 Nordeste 17 Este 0 -- -- 71
2018-05-17 10:00:00 12.4 12 Nordeste 19 Nordeste 0 -- -- 78
2018-05-17 09:00:00 10.2 10 Nordeste 15 Nordeste 0 -- -- 88
2018-05-17 08:00:00 6.9 12 Nordeste 16 Nordeste 0 -- -- 95
2018-05-17 07:00:00 7.2 7 Nordeste 15 Nordeste 0 -- -- 93
2018-05-17 06:00:00 7.8 8 Este 10 Este 0 -- -- 89
2018-05-17 05:00:00 8.1 8 Este 13 Este 0 -- -- 88
2018-05-17 04:00:00 8.7 8 Este 11 Este 0 -- -- 84
2018-05-17 03:00:00 9.7 5 Norte 15 Este 0 -- -- 79
2018-05-17 02:00:00 11.5 13 Este 19 Este 0 -- -- 73
2018-05-17 01:00:00 11.4 12 Este 16 Este 0 -- -- 72
2018-05-17 00:00:00 12.4 9 Nordeste 12 Nordeste 0 -- -- 67
2018-05-16 23:00:00 13.6 4 Nordeste 5 Nordeste 0 -- -- 61
2018-05-16 22:00:00 16.1 3 Nordeste 11 Nordeste 0 -- -- 53
2018-05-16 21:00:00 19.4 10 Norte 18 Norte 0 -- -- 46
2018-05-16 20:00:00 21.7 12 Nordeste 19 Nordeste 0 -- -- 38
2018-05-16 19:00:00 22.5 12 Este 26 Nordeste 0 -- -- 33
2018-05-16 18:00:00 22.5 12 Nordeste 23 Este 0 -- -- 36
2018-05-16 17:00:00 22.1 12 Nordeste 22 Nordeste 0 -- -- 37
2018-05-16 16:00:00 21.4 16 Nordeste 26 Nordeste 0 -- -- 43
2018-05-16 15:00:00 20.5 13 Nordeste 29 Nordeste 0 -- -- 46
2018-05-16 14:00:00 19.3 15 Nordeste 28 Nordeste 0 -- -- 51
2018-05-16 13:00:00 17.9 14 Nordeste 26 Nordeste 0 -- -- 53
2018-05-16 12:00:00 15.6 18 Nordeste 24 Nordeste 0 -- -- 54
2018-05-16 11:00:00 13.2 16 Nordeste 26 Norte 0 -- -- 55
2018-05-16 10:00:00 10.8 18 Nordeste 26 Nordeste 0 -- -- 56
2018-05-16 09:00:00 9 16 Nordeste 24 Este 0 -- -- 61
2018-05-16 08:00:00 6.8 5 Nordeste 17 Este 0 -- -- 70
2018-05-16 07:00:00 6.8 10 Este 23 Este 0 -- -- 64
2018-05-16 06:00:00 7.5 17 Nordeste 28 Este 0 -- -- 63
2018-05-16 05:00:00 8.2 18 Nordeste 29 Este 0 -- -- 64
2018-05-16 04:00:00 8.6 15 Este 22 Nordeste 0 -- -- 74
2018-05-16 03:00:00 9.7 16 Nordeste 22 Nordeste 0 -- -- 76
2018-05-16 02:00:00 9.1 10 Este 18 Este 0 -- -- 78
2018-05-16 01:00:00 9.9 13 Este 16 Este 0 -- -- 75
2018-05-16 00:00:00 10.2 12 Nordeste 14 Este 0 -- -- 74
2018-05-15 23:00:00 12 8 Este 11 Nordeste 0 -- -- 66
2018-05-15 22:00:00 13.9 9 Nordeste 13 Nordeste 0 -- -- 61
2018-05-15 21:00:00 18 11 Nordeste 25 Nordeste 0 -- -- 47
2018-05-15 20:00:00 19.7 17 Nordeste 27 Nordeste 0 -- -- 39
2018-05-15 19:00:00 20.1 16 Nordeste 28 Nordeste 0 -- -- 39
2018-05-15 18:00:00 20.3 16 Nordeste 31 Este 0 -- -- 39
2018-05-15 17:00:00 19.9 18 Nordeste 30 Nordeste 0 -- -- 39
2018-05-15 16:00:00 19.4 16 Nordeste 33 Este 0 -- -- 38
2018-05-15 15:00:00 18 19 Nordeste 31 Nordeste 0 -- -- 39
2018-05-15 14:00:00 16.4 22 Nordeste 32 Nordeste 0 -- -- 35
2018-05-15 13:00:00 15.4 22 Nordeste 37 Este 0 -- -- 39
2018-05-15 12:00:00 14.1 21 Nordeste 39 Este 0 -- -- 37
2018-05-15 11:00:00 12.3 26 Nordeste 40 Este 0 -- -- 38
2018-05-15 10:00:00 10.5 24 Nordeste 37 Nordeste 0 -- -- 45
2018-05-15 09:00:00 7.6 17 Este 33 Este 0 -- -- 67
2018-05-15 08:00:00 4.3 13 Este 18 Este 0 -- -- 80
2018-05-15 07:00:00 2.8 10 Este 28 Este 0 -- -- 88
2018-05-15 06:00:00 3.9 15 Este 22 Este 0 -- -- 89
2018-05-15 05:00:00 5.1 15 Este 28 Nordeste 0 -- -- 83
2018-05-15 04:00:00 6 16 Nordeste 24 Nordeste -- -- -- 80
2018-05-15 03:00:00 7.1 16 Nordeste 26 Este 0 -- -- 76
2018-05-15 02:00:00 6.7 14 Este 23 Nordeste 0 -- -- 83
2018-05-15 01:00:00 6.9 10 Este 13 Este 0 -- -- 83
2018-05-15 00:00:00 8.7 11 Este 13 Este 0 -- -- 76
2018-05-14 23:00:00 9.5 11 Este 13 Este 0 -- -- 73
2018-05-14 22:00:00 11.8 7 Este 16 Nordeste 0 -- -- 63
2018-05-14 21:00:00 15.1 12 Nordeste 26 Norte 0 -- -- 51
2018-05-14 20:00:00 17.1 16 Norte 27 Norte 0 -- -- 47
2018-05-14 19:00:00 16.7 17 Norte 30 Nordeste 0 -- -- 50
2018-05-14 18:00:00 17.2 16 Nordeste 28 Norte 0 -- -- 51
2018-05-14 17:00:00 16.5 8 Norte 21 Norte 0 -- -- 55
2018-05-14 16:00:00 14.6 13 Norte 36 Norte 0 -- -- 67
2018-05-14 15:00:00 15.2 18 Norte 31 Norte 0 -- -- 67
2018-05-14 14:00:00 15.4 15 Norte 28 Norte 0 -- -- 63
2018-05-14 13:00:00 13.9 18 Noroeste 28 Noroeste 0 -- -- 71
2018-05-14 12:00:00 12.7 17 Noroeste 28 Noroeste 0 -- -- 78
2018-05-14 11:00:00 11 13 Noroeste 24 Noroeste 0 -- -- 82
2018-05-14 10:00:00 9.1 10 Oeste 19 Oeste 0 -- -- 86
2018-05-14 09:00:00 8 8 Oeste 13 Sur 0 -- -- 89
2018-05-14 08:00:00 6.9 8 Sudoeste 12 Sudoeste 0 -- -- 92
2018-05-14 07:00:00 6.3 6 Sudoeste 13 Sur 0 -- -- 92
2018-05-14 06:00:00 6.2 5 Sur 10 Sudoeste 0 -- -- 92
2018-05-14 05:00:00 6.2 6 Sudoeste 9 Sudoeste 0 -- -- 92
2018-05-14 04:00:00 5.2 4 Sudoeste 8 Oeste 0 -- -- 92
2018-05-14 03:00:00 5.7 4 Oeste 8 Sudoeste 0 -- -- 90
2018-05-14 02:00:00 5.4 5 Sur 7 Sur 0 -- -- 89
2018-05-14 01:00:00 5.9 3 Sudoeste 8 Noroeste 0 -- -- 86
2018-05-11 20:00:00 -- -- -- -- -- -- -- -- --
2018-05-11 19:00:00 -- -- -- -- -- -- -- -- --
2018-05-11 18:00:00 -- -- -- -- -- -- -- -- --
2018-05-11 17:00:00 20.8 18 Sudoeste 37 Sudoeste 0 -- -- 48
2018-05-11 16:00:00 20.2 17 Sudoeste 36 Sudoeste 0 -- -- 57
2018-05-11 15:00:00 20.5 18 Sudoeste 37 Sudoeste 0 -- -- 53
2018-05-11 14:00:00 20.6 22 Sudoeste 40 Sudoeste 0 -- -- 56
2018-05-11 13:00:00 18.9 19 Sudoeste 34 Sudoeste 0 -- -- 63
2018-05-11 12:00:00 17.9 14 Oeste 24 Sudoeste 0 -- -- 69
2018-05-11 11:00:00 16.2 9 Oeste 15 Oeste 0 -- -- 72
2018-05-11 10:00:00 14.3 7 Sudoeste 14 Sudoeste 0 -- -- 75
2018-05-11 09:00:00 12 5 Oeste 9 Oeste 0 -- -- 83
2018-05-11 08:00:00 7.6 2 Sur 4 Oeste 0 -- -- 93
2018-05-11 07:00:00 8.3 4 Oeste 9 Sudeste 0 -- -- 87
2018-05-11 06:00:00 8.7 7 Sudeste 10 Sudeste 0 -- -- 85
2018-05-11 05:00:00 9.7 3 Sur 11 Sudeste 0 -- -- 81
2018-05-11 04:00:00 9.7 5 Sur 13 Sudeste 0 -- -- 79
2018-05-11 03:00:00 9.1 8 Este 13 Este 0 -- -- 83
2018-05-11 02:00:00 9.8 10 Este 14 Este 0 -- -- 81
2018-05-11 01:00:00 10 7 Este 15 Este 0 -- -- 81
2018-05-11 00:00:00 12 8 Sudeste 13 Sudeste 0 -- -- 74
2018-05-10 23:00:00 13 9 Este 10 Este 0 -- -- 68
2018-05-10 22:00:00 14.5 7 Este 9 Este 0 -- -- 65
2018-05-10 21:00:00 18.6 5 Nordeste 10 Nordeste 0 -- -- 60
2018-05-10 20:00:00 20 8 Nordeste 17 Nordeste 0 -- -- 45
2018-05-10 19:00:00 20.4 11 Nordeste 17 Nordeste 0 -- -- 44
2018-05-10 18:00:00 20.2 8 Nordeste 22 Norte 0 -- -- 43
2018-05-10 17:00:00 20.1 12 Nordeste 26 Este 0 -- -- 47
2018-05-10 16:00:00 19.3 13 Nordeste 24 Nordeste 0 -- -- 49
2018-05-10 15:00:00 18.6 12 Nordeste 26 Nordeste 0 -- -- 53
2018-05-10 14:00:00 17.8 18 Este 37 Nordeste 0 -- -- 57
2018-05-10 13:00:00 16.6 23 Nordeste 37 Nordeste 0 -- -- 58
2018-05-10 12:00:00 15.5 23 Nordeste 38 Nordeste 0 -- -- 60
2018-05-10 11:00:00 14.3 25 Este 44 Nordeste 0 -- -- 62
2018-05-10 10:00:00 12.5 32 Nordeste 46 Este 0 -- -- 63
2018-05-10 09:00:00 11 19 Nordeste 31 Nordeste 0 -- -- 86
2018-05-10 08:00:00 9.6 14 Nordeste 26 Nordeste 0 -- -- 93
2018-05-10 07:00:00 8.4 8 Nordeste 13 Nordeste 0 -- -- 97
2018-05-10 06:00:00 8.5 6 Norte 10 Norte 0 -- -- 94
2018-05-10 05:00:00 8.8 3 Oeste 7 Sudoeste 0 -- -- 96
2018-05-10 04:00:00 8.8 5 Sudoeste 8 Sudoeste 0 -- -- 95
2018-05-10 03:00:00 9.7 7 Sudoeste 12 Sudoeste 0 -- -- 94
2018-05-10 02:00:00 10.4 6 Sudoeste 10 Sudoeste 0 -- -- 93
2018-05-10 01:00:00 11.3 7 Sudoeste 14 Oeste 0 -- -- 91
2018-05-10 00:00:00 12.3 9 Sudoeste 15 Sudoeste 0 -- -- 87
2018-05-09 23:00:00 13.1 8 Sudoeste 14 Oeste 0 -- -- 80
2018-05-09 22:00:00 14 7 Oeste 21 Noroeste 0 -- -- 77
2018-05-09 21:00:00 15.1 17 Oeste 34 Oeste 0 -- -- 72
2018-05-09 20:00:00 17.2 19 Oeste 32 Oeste 0 -- -- 74
2018-05-09 19:00:00 19.1 19 Oeste 28 Oeste 0 -- -- 66
2018-05-09 18:00:00 20.6 12 Oeste 24 Oeste 0 -- -- 60
2018-05-09 17:00:00 19.7 8 Sudoeste 19 Noroeste 0 -- -- 67
2018-05-09 16:00:00 17.6 10 Noroeste 18 Oeste 0 -- -- 79
2018-05-09 15:00:00 15.7 10 Oeste 16 Sudoeste 0 -- -- 85
2018-05-09 14:00:00 14 4 Noroeste 12 Oeste 0 -- -- 91
2018-05-09 13:00:00 12.6 6 Oeste 14 Sudoeste 0 -- -- 94
2018-05-09 12:00:00 12 7 Noroeste 12 Oeste 0 -- -- 97
2018-05-09 11:00:00 11.6 8 Oeste 13 Oeste 0 -- -- 98
2018-05-09 10:00:00 11.3 6 Sudoeste 12 Oeste 0 -- -- 99
2018-05-09 09:00:00 11.2 4 Sudoeste 8 Sudoeste 0 -- -- 99
2018-05-09 08:00:00 11 0 Calma 9 Sudoeste 0 -- -- 99
2018-05-09 07:00:00 11 6 Sudoeste 12 Sudoeste 0 -- -- 98
2018-05-09 06:00:00 10.8 4 Oeste 8 Sur 0 -- -- 97
2018-05-09 05:00:00 10.9 5 Sudoeste 11 Sudoeste 0 -- -- 97
2018-05-09 04:00:00 11.8 7 Sudoeste 14 Sudoeste 0 -- -- 97
2018-05-09 03:00:00 12.4 10 Sudoeste 15 Sur 0 -- -- 96
2018-05-09 02:00:00 13 9 Sudoeste 15 Oeste 0 -- -- 95
2018-05-09 01:00:00 13.8 8 Sudoeste 13 Sudoeste 0 -- -- 94
2018-05-09 00:00:00 15 9 Sudoeste 14 Sudoeste 0 -- -- 90
2018-05-08 23:00:00 16.2 12 Sudoeste 18 Sur 0 -- -- 84
2018-05-08 22:00:00 17.9 4 Oeste 16 Sudoeste 0 -- -- 70
2018-05-08 21:00:00 19.1 13 Sudoeste 29 Este 0 -- -- 66
2018-05-08 20:00:00 21 18 Nordeste 25 Este 0 -- -- 58
2018-05-08 19:00:00 23.7 14 Oeste 26 Oeste 0 -- -- 53
2018-05-08 18:00:00 24.1 12 Noroeste 21 Noroeste 0 -- -- 53
2018-05-08 17:00:00 23.9 8 Noroeste 18 Noroeste 0 -- -- 54
2018-05-08 16:00:00 22.7 5 Norte 25 Norte 0 -- -- 52
2018-05-08 15:00:00 21.8 9 Norte 17 Nordeste 0 -- -- 61
2018-05-08 14:00:00 21.8 6 Norte 18 Noroeste 0 -- -- 61
2018-05-08 13:00:00 21 4 Norte 9 Noroeste 0 -- -- 65
2018-05-08 12:00:00 20.1 4 Este 13 Nordeste 0 -- -- 69
2018-05-08 11:00:00 18.6 4 Nordeste 12 Nordeste 0 -- -- 78
2018-05-08 10:00:00 17.1 5 Nordeste 9 Nordeste 0 -- -- 82
2018-05-08 09:00:00 14.5 3 Sur 6 Sur 0 -- -- 89
2018-05-08 08:00:00 12.8 5 Sudoeste 9 Sur 0 -- -- 93
2018-05-08 07:00:00 12.1 6 Sur 10 Sur 0 -- -- 93
2018-05-08 06:00:00 12.8 7 Sur 12 Sur 0 -- -- 90
2018-05-08 05:00:00 12.7 7 Sudoeste 15 Sudoeste 0 -- -- 89
2018-05-08 04:00:00 12.5 9 Sudoeste 16 Sur 0 -- -- 89
2018-05-08 03:00:00 12.6 9 Sudeste 12 Sudeste 0 -- -- 89
2018-05-08 02:00:00 13.8 5 Sur 16 Sur 0 -- -- 83
2018-05-08 01:00:00 13.9 8 Sur 23 Sudeste 0 -- -- 84
2018-05-08 00:00:00 14.1 6 Sudoeste 14 Sudoeste 0 -- -- 84
2018-05-07 23:00:00 14.4 10 Sudoeste 19 Sudoeste 0 -- -- 82
2018-05-07 22:00:00 16.3 11 Sudoeste 19 Sudoeste 0 -- -- 74
2018-05-07 21:00:00 17.5 15 Sudoeste 31 Sudoeste 0 -- -- 66
2018-05-07 20:00:00 19 20 Sudoeste 32 Oeste 0 -- -- 63
2018-05-07 19:00:00 19.9 12 Sur 24 Sudeste 0 -- -- 61
2018-05-07 18:00:00 20.4 7 Sudeste 15 Nordeste 0 -- -- 66
2018-05-07 17:00:00 19.6 11 Nordeste 31 Norte 0.2 -- -- 62
2018-05-07 16:00:00 23.2 8 Nordeste 21 Norte 0 -- -- 51
2018-05-07 15:00:00 22.3 10 Norte 19 Noroeste 0 -- -- 58
2018-05-07 14:00:00 21.3 8 Nordeste 18 Norte 0 -- -- 57
2018-05-07 13:00:00 20.3 4 Noroeste 9 Norte 0 -- -- 61
2018-05-07 12:00:00 19.1 4 Sudeste 9 Oeste 0 -- -- 66
2018-05-07 11:00:00 17.2 6 Noroeste 10 Noroeste 0.2 -- -- 77
2018-05-07 10:00:00 16.1 2 Oeste 5 Oeste 0 -- -- 80
2018-05-07 09:00:00 12.6 2 Noroeste 6 Sudeste 0 -- -- 90
2018-05-07 08:00:00 9.8 4 Sudeste 14 Sudeste 0 -- -- 93
2018-05-07 07:00:00 9.8 11 Sudeste 15 Sudeste 0 -- -- 93
2018-05-07 06:00:00 10.4 10 Sudeste 13 Sudeste 0 -- -- 94
2018-05-07 05:00:00 10.4 4 Sudeste 8 Sudeste 0 -- -- 95
2018-05-07 04:00:00 10.6 6 Sudeste 9 Sudeste 0 -- -- 97
2018-05-07 03:00:00 10.1 0 Calma 7 Noroeste 0 -- -- 95
2018-05-07 02:00:00 11.9 5 Oeste 13 Sudeste 0 -- -- 90
2018-05-07 01:00:00 12.8 4 Sur 8 Sur 0 -- -- 93
2018-05-07 00:00:00 13.4 4 Norte 12 Este 0 -- -- 89
2018-05-06 23:00:00 13.5 4 Este 13 Sudeste 0 -- -- 90
2018-05-06 22:00:00 13.6 8 Sudeste 20 Sudeste 0 -- -- 88
2018-05-06 21:00:00 14.6 9 Sudeste 14 Sur 0 -- -- 83
2018-05-06 20:00:00 16.2 8 Sudoeste 27 Sudoeste 0 -- -- 74
2018-05-06 19:00:00 14.1 19 Sudoeste 47 Este 3.6 -- -- 83
2018-05-06 18:00:00 18.6 22 Sudoeste 35 Sudoeste 0 -- -- 65
2018-05-06 17:00:00 18.6 19 Sudoeste 32 Sudoeste 0 -- -- 67
2018-05-06 16:00:00 21.4 11 Noroeste 20 Noroeste 0 -- -- 60
2018-05-06 15:00:00 20.8 6 Noroeste 17 Noroeste 0 -- -- 55
2018-05-06 14:00:00 19.9 9 Oeste 18 Oeste 0 -- -- 61
2018-05-06 13:00:00 18.7 8 Noroeste 15 Noroeste 0 -- -- 67
2018-05-06 12:00:00 17.7 5 Noroeste 11 Noroeste 0 -- -- 66
2018-05-06 11:00:00 15.8 4 Nordeste 9 Nordeste 0 -- -- 74
2018-05-06 10:00:00 12.9 6 Nordeste 10 Nordeste 0 -- -- 83
2018-05-06 09:00:00 10.4 6 Norte 9 Este 0 -- -- 88
2018-05-06 08:00:00 7.6 6 Nordeste 9 Nordeste 0 -- -- 95
2018-05-06 07:00:00 7.3 8 Nordeste 14 Este 0 -- -- 94
2018-05-06 06:00:00 7.8 11 Este 15 Este 0 -- -- 94
2018-05-06 05:00:00 7.1 6 Este 9 Este 0 -- -- 94
2018-05-06 04:00:00 7.7 2 Nordeste 9 Nordeste 0 -- -- 93
2018-05-06 03:00:00 8.6 7 Este 13 Este 0 -- -- 90
2018-05-06 02:00:00 9.8 6 Este 13 Este 0 -- -- 87
2018-05-06 01:00:00 10.2 8 Este 27 Nordeste 0 -- -- 84
2018-05-06 00:00:00 11.3 8 Sudeste 12 Sudeste 0 -- -- 80
2018-05-05 23:00:00 11.6 8 Este 10 Este 0 -- -- 79
2018-05-05 22:00:00 13.3 5 Este -- -- 0 -- -- 73
2018-05-05 21:00:00 17.4 4 Norte 12 Norte 0 -- -- 64
2018-05-05 20:00:00 18.6 7 Norte 12 Norte 0 -- -- 57
2018-05-05 19:00:00 18.7 6 Noroeste 17 Norte 0 -- -- 53
2018-05-05 18:00:00 18.7 11 Noroeste 29 Noroeste 0 -- -- 56
2018-05-05 17:00:00 18.8 9 Noroeste 21 Norte 0 -- -- 57
2018-05-05 16:00:00 18.6 9 Noroeste 17 Norte 0 -- -- 54
2018-05-05 15:00:00 17.7 8 Norte 15 Norte 0 -- -- 60
2018-05-05 14:00:00 16.5 7 Norte 17 Nordeste 0 -- -- 59
2018-05-05 13:00:00 15 10 Nordeste 21 Nordeste 0 -- -- 67
2018-05-05 12:00:00 13.2 14 Nordeste 22 Nordeste 0 -- -- 71
2018-05-05 11:00:00 10.9 15 Nordeste 22 Nordeste 0 -- -- 75
2018-05-05 10:00:00 8.9 13 Nordeste 22 Este 0 -- -- 80
2018-05-05 09:00:00 6.7 15 Este 27 Este 0 -- -- 87
2018-05-05 08:00:00 4.7 13 Este 21 Este 0 -- -- 93
2018-05-05 07:00:00 4 10 Nordeste 17 Nordeste 0 -- -- 94
2018-05-05 06:00:00 4.1 9 Nordeste 16 Este 0 -- -- 93
2018-05-05 05:00:00 4.3 5 Este 14 Nordeste 0 -- -- 92
2018-05-05 04:00:00 4.5 9 Nordeste 14 Este 0 -- -- 91
2018-05-05 03:00:00 5.6 5 Nordeste 19 Este 0 -- -- 88
2018-05-05 02:00:00 7 13 Este 27 Nordeste 0 -- -- 83
2018-05-05 01:00:00 7.9 16 Nordeste 23 Nordeste 0 -- -- 80
2018-05-05 00:00:00 8.6 13 Este 26 Nordeste 0 -- -- 78
2018-05-04 23:00:00 9.3 14 Nordeste 20 Nordeste 0 -- -- 74
2018-05-04 22:00:00 9.5 10 Nordeste 17 Nordeste 0 -- -- 75
2018-05-04 21:00:00 12.7 12 Nordeste 30 Nordeste 0 -- -- 61
2018-05-04 20:00:00 14.6 19 Nordeste 31 Nordeste 0 -- -- 54
2018-05-04 19:00:00 15.2 23 Nordeste 34 Nordeste 0 -- -- 53
2018-05-04 18:00:00 15.2 26 Nordeste 36 Norte 0 -- -- 56
2018-05-04 17:00:00 15.1 23 Nordeste 42 Nordeste 0 -- -- 52
2018-05-04 16:00:00 14.6 27 Nordeste 46 Nordeste 0 -- -- 51
2018-05-04 15:00:00 13.6 26 Nordeste 46 Este 0 -- -- 56
2018-05-04 14:00:00 12.3 27 Nordeste 45 Nordeste 0 -- -- 58
2018-05-04 13:00:00 10.8 29 Nordeste 45 Nordeste 0 -- -- 61
2018-05-04 12:00:00 9.6 30 Nordeste 48 Nordeste 0 -- -- 62
2018-05-04 11:00:00 8.5 26 Nordeste 51 Nordeste 0 -- -- 68
2018-05-04 10:00:00 6.3 33 Nordeste 47 Nordeste 0 -- -- 72
2018-05-04 09:00:00 4.5 21 Nordeste 37 Nordeste 0 -- -- 81
2018-05-04 08:00:00 2.4 16 Nordeste 22 Nordeste 0 -- -- 88
2018-05-04 07:00:00 2.2 17 Nordeste 26 Nordeste 0 -- -- 88
2018-05-04 06:00:00 2.7 17 Nordeste 25 Nordeste 0 -- -- 86
2018-05-04 05:00:00 3.4 20 Nordeste 29 Nordeste 0 -- -- 82
2018-05-04 04:00:00 4.1 19 Nordeste 34 Nordeste 0 -- -- 79
2018-05-04 03:00:00 4.7 21 Nordeste 31 Este 0 -- -- 78
2018-05-04 02:00:00 5.4 19 Nordeste 31 Este 0 -- -- 76
2018-05-04 01:00:00 6.6 21 Nordeste 33 Nordeste 0 -- -- 70
2018-05-04 00:00:00 7.5 18 Nordeste 32 Nordeste 0 -- -- 71
2018-05-03 23:00:00 9.1 21 Nordeste 32 Este 0 -- -- 67
2018-05-03 22:00:00 9.7 13 Este 27 Nordeste 0 -- -- 68
2018-05-03 21:00:00 12.4 14 Nordeste 28 Nordeste 0 -- -- 58
2018-05-03 20:00:00 13.8 23 Nordeste 31 Nordeste 0 -- -- 51
2018-05-03 19:00:00 13.9 19 Nordeste 32 Nordeste 0 -- -- 58
2018-05-03 18:00:00 14.2 18 Nordeste 30 Nordeste 0 -- -- 57
2018-05-03 17:00:00 14.2 17 Nordeste 31 Nordeste 0 -- -- 61
2018-05-03 16:00:00 14.8 17 Nordeste 27 Nordeste 0 -- -- 60
2018-05-03 15:00:00 14.1 19 Nordeste 29 Norte 0 -- -- 67
2018-05-03 14:00:00 13.1 15 Nordeste 31 Nordeste 0 -- -- 66
2018-05-03 13:00:00 13.2 15 Nordeste 23 Nordeste 0 -- -- 70
2018-05-03 12:00:00 11.5 13 Nordeste 19 Norte 0 -- -- 77
2018-05-03 11:00:00 10 4 Noroeste 8 Noroeste 0 -- -- 88
2018-05-03 10:00:00 9.3 4 Oeste 10 Noroeste 0 -- -- 92
2018-05-03 09:00:00 8.6 5 Noroeste 9 Oeste 0 -- -- 96
2018-05-03 08:00:00 8.2 4 Oeste 8 Oeste 0 -- -- 96
2018-05-03 07:00:00 7.9 5 Oeste 10 Oeste 0 -- -- 97
2018-05-03 06:00:00 6.5 4 Sudoeste 8 Sudoeste 0 -- -- 96
2018-05-03 05:00:00 6.9 4 Sudoeste 6 Sudoeste 0 -- -- 96
2018-05-03 04:00:00 7 3 Sudoeste 8 Oeste 0 -- -- 93
2018-05-03 03:00:00 7.5 4 Sudoeste 8 Oeste 0 -- -- 92
2018-05-03 02:00:00 8.4 4 Oeste 10 Oeste 0 -- -- 90
2018-05-03 01:00:00 9.4 6 Noroeste 12 Oeste 0 -- -- 88
2018-05-03 00:00:00 9.2 3 Oeste 8 Noroeste 0 -- -- 87
2018-05-02 23:00:00 9.5 5 Noroeste 14 Noroeste 0 -- -- 84
2018-05-02 22:00:00 10.5 7 Noroeste 14 Noroeste 0 -- -- 80
2018-05-02 21:00:00 12.5 11 Noroeste 21 Noroeste 0 -- -- 71
2018-05-02 20:00:00 12.9 12 Noroeste 21 Noroeste 0 -- -- 68
2018-05-02 19:00:00 13.3 12 Noroeste 20 Oeste 0 -- -- 65
2018-05-02 18:00:00 13.9 12 Noroeste 19 Oeste 0 -- -- 63
2018-05-02 17:00:00 14.2 12 Noroeste 21 Oeste 0 -- -- 63
2018-05-02 16:00:00 13.6 9 Noroeste 15 Noroeste 0 -- -- 62
2018-05-02 15:00:00 12.5 12 Noroeste 20 Sudoeste 0 -- -- 63
2018-05-02 14:00:00 11.5 9 Sudoeste 23 Oeste 0 -- -- 59
2018-05-02 13:00:00 10.7 10 Oeste 18 Oeste 0 -- -- 61
2018-05-02 12:00:00 9.1 7 Oeste 13 Oeste 0 -- -- 64
2018-05-02 11:00:00 7.5 5 Oeste 13 Sudoeste 0 -- -- 72
2018-05-02 10:00:00 6.3 8 Oeste 14 Oeste 0 -- -- 76
2018-05-02 09:00:00 4.8 7 Sudoeste 12 Sudoeste 0 -- -- 84
2018-05-02 08:00:00 4 7 Sudoeste 13 Sudoeste 0 -- -- 86
2018-05-02 07:00:00 3.1 6 Sudoeste 11 Sudoeste 0 -- -- 87
2018-05-02 06:00:00 3.1 8 Sudoeste 11 Sudoeste 0 -- -- 85
2018-05-02 05:00:00 3.2 5 Sur 8 Sur 0 -- -- 85
2018-05-02 04:00:00 3.1 6 Sur 11 Sur 0 -- -- 86
2018-05-02 03:00:00 3.8 6 Sur 16 Sudoeste 0 -- -- 84
2018-05-02 02:00:00 4.4 9 Sudoeste 13 Sudoeste 0 -- -- 83
2018-05-02 01:00:00 5.3 7 Sudoeste 12 Sudoeste 0 -- -- 81
2018-05-02 00:00:00 6.2 7 Sudoeste 18 Sudoeste 0 -- -- 78
2018-05-01 23:00:00 7.3 6 Sudoeste 10 Sudoeste 0 -- -- 71
2018-05-01 22:00:00 8.3 5 Oeste 10 Oeste 0 -- -- 69
2018-05-01 21:00:00 11.7 4 Oeste 10 Sudoeste 0 -- -- 52
2018-05-01 20:00:00 13.1 7 Oeste 14 Oeste 0 -- -- 46
2018-05-01 19:00:00 13.6 6 Oeste 14 Noroeste 0 -- -- 44
2018-05-01 18:00:00 13 5 Oeste 13 Noroeste 0 -- -- 42
2018-05-01 17:00:00 12.9 6 Noroeste 15 Noroeste 0 -- -- 46
2018-05-01 16:00:00 11.2 7 Norte 17 Este 0 -- -- 53
2018-05-01 15:00:00 11.5 12 Este 23 Este 0 -- -- 52
2018-05-01 14:00:00 11 10 Nordeste 24 Nordeste 0 -- -- 61
2018-05-01 13:00:00 9.9 11 Nordeste 19 Nordeste 0 -- -- 63
2018-05-01 12:00:00 9.6 8 Nordeste 21 Este 0 -- -- 63
2018-05-01 11:00:00 8.4 11 Este 21 Este 0 -- -- 75
2018-05-01 10:00:00 6.5 10 Este 14 Este 0 -- -- 88
2018-05-01 09:00:00 3.4 0 Calma 2 Este 0 -- -- 99
2018-05-01 08:00:00 1.6 0 Calma 2 Este 0 -- -- 98
2018-05-01 07:00:00 2.4 0 Calma 6 Oeste 0 -- -- 98
2018-05-01 06:00:00 2.8 2 Nordeste 7 Este 0 -- -- 97
2018-05-01 05:00:00 3.1 3 Nordeste 9 Este 0 -- -- 97
2018-05-01 04:00:00 2.4 4 Este 5 Este 0 -- -- 97
2018-05-01 03:00:00 3 2 Noroeste 6 Este 0 -- -- 95
2018-05-01 02:00:00 4 3 Este 8 Sudeste 0 -- -- 94
2018-05-01 01:00:00 4.4 5 Sudeste 12 Oeste 0.2 -- -- 94
2018-05-01 00:00:00 4.6 7 Oeste 17 Oeste 0.2 -- -- 95
2018-04-30 23:00:00 4.2 10 Sudeste 15 Este 0.2 -- -- 93
2018-04-30 22:00:00 4.9 0 Calma 29 Nordeste 2 -- -- 90
2018-04-30 21:00:00 5.1 16 Nordeste 37 Norte 1.8 -- -- 85
2018-04-30 20:00:00 10.6 9 Oeste 24 Oeste 0 -- -- 58
2018-04-30 19:00:00 11.9 13 Oeste 23 Oeste 0 -- -- 51
2018-04-30 18:00:00 10.8 12 Oeste 22 Oeste 0 -- -- 56
2018-04-30 17:00:00 10.2 10 Oeste 25 Oeste 0 -- -- 62
2018-04-30 16:00:00 10.2 12 Oeste 24 Oeste 0 -- -- 62
2018-04-30 15:00:00 9.2 15 Oeste 27 Oeste 0 -- -- 60
2018-04-30 14:00:00 8.4 15 Oeste 30 Oeste 0 -- -- 73
2018-04-30 13:00:00 7.1 12 Oeste 21 Oeste 0 -- -- 71
2018-04-30 12:00:00 6.3 12 Oeste 28 Sudoeste 0 -- -- 77
2018-04-30 11:00:00 5.1 12 Sudoeste 18 Sudoeste 0 -- -- 81
2018-04-30 10:00:00 4.1 7 Sudoeste 12 Oeste 0 -- -- 91
2018-04-30 09:00:00 2.9 4 Sudoeste 9 Sudoeste 0 -- -- 93
2018-04-30 08:00:00 1.8 6 Sur 11 Sur 0 -- -- 94
2018-04-30 07:00:00 1.1 8 Sur 13 Sudoeste 0 -- -- 93
2018-04-30 06:00:00 1.5 6 Sur 9 Sur 0 -- -- 93
2018-04-30 05:00:00 2.2 5 Sudoeste 15 Sudoeste 0 -- -- 91
2018-04-30 04:00:00 2.2 6 Sudoeste 15 Sudoeste 0 -- -- 93
2018-04-30 03:00:00 1.9 6 Sur 11 Sudoeste 0 -- -- 91
2018-04-30 02:00:00 2.5 3 Sudoeste 23 Sudoeste 0 -- -- 89
2018-04-30 01:00:00 3.9 9 Oeste 16 Oeste 0 -- -- 87
2018-04-30 00:00:00 4.5 8 Sudoeste 14 Sudoeste 0 -- -- 86
2018-04-29 23:00:00 4.1 8 Sudoeste 19 Oeste 0 -- -- 85
2018-04-29 22:00:00 5.1 13 Sudoeste 25 Oeste 0 -- -- 83
2018-04-29 21:00:00 5.7 15 Sudoeste 36 Sudoeste 0 -- -- 80
2018-04-29 20:00:00 6 14 Oeste 44 Oeste 0.4 -- -- 82
2018-04-29 19:00:00 6.5 18 Oeste 51 Oeste 0.2 -- -- 81
2018-04-29 18:00:00 6.5 27 Oeste 47 Oeste 0.2 -- -- 78
2018-04-29 17:00:00 6.5 31 Oeste 52 Oeste 0 -- -- 77
2018-04-29 16:00:00 9 23 Oeste 50 Sudoeste 0 -- -- 66
2018-04-29 15:00:00 9.2 30 Oeste 46 Oeste 0 -- -- 67
2018-04-29 14:00:00 8.5 24 Oeste 54 Oeste 0 -- -- 74
2018-04-29 13:00:00 8.6 26 Oeste 45 Sudoeste 0 -- -- 73
2018-04-29 12:00:00 6.6 26 Oeste 45 Oeste 0 -- -- 83
2018-04-29 11:00:00 6 20 Oeste 37 Sudoeste 0 -- -- 84
2018-04-29 10:00:00 5 21 Sudoeste 32 Sudoeste 0 -- -- 90
2018-04-29 09:00:00 4.4 18 Sudoeste 32 Oeste 0 -- -- 93
2018-04-29 08:00:00 4.2 16 Sudoeste 26 Oeste 0.2 -- -- 95
2018-04-29 07:00:00 3.8 14 Sudoeste 24 Sudoeste 0.8 -- -- 96
2018-04-29 06:00:00 3.7 15 Oeste 24 Sudoeste 0.8 -- -- 95
2018-04-29 05:00:00 4.1 12 Oeste 21 Sudoeste 0.8 -- -- 94
2018-04-29 04:00:00 4.6 10 Oeste 17 Oeste 0.2 -- -- 94
2018-04-29 03:00:00 4.9 7 Oeste 12 Oeste 0 -- -- 92
2018-04-29 02:00:00 5 6 Oeste 13 Oeste 0 -- -- 92
2018-04-29 01:00:00 5 8 Oeste 21 Sudoeste 0.6 -- -- 92
2018-04-29 00:00:00 6.1 8 Sudoeste 15 Sudoeste 0 -- -- 90
2018-04-28 23:00:00 6.1 8 Oeste 22 Oeste 0 -- -- 87
2018-04-28 22:00:00 7.4 12 Oeste 22 Sudoeste 0 -- -- 78
2018-04-28 21:00:00 8.1 4 Sudeste 9 Oeste 0 -- -- 85
2018-04-28 20:00:00 8.2 6 Oeste 24 Sudoeste 0.8 -- -- 78
2018-04-28 19:00:00 8.2 5 Norte 27 Sur 0.4 -- -- 68
2018-04-28 18:00:00 11.3 14 Sudoeste 23 Sudoeste 0 -- -- 56
2018-04-28 17:00:00 11.6 14 Sudoeste 26 Sudoeste 0 -- -- 55
2018-04-28 16:00:00 12.3 12 Sudoeste 25 Oeste 0 -- -- 49
2018-04-28 15:00:00 10.9 15 Oeste 32 Sudoeste 0 -- -- 58
2018-04-28 14:00:00 10.1 18 Oeste 26 Sudoeste 0 -- -- 63
2018-04-28 13:00:00 9.4 10 Sudoeste 23 Sudoeste 0 -- -- 74
2018-04-28 12:00:00 6.8 13 Sudoeste 21 Sudoeste 0 -- -- 86
2018-04-28 11:00:00 6.5 12 Sudoeste 20 Sudoeste 0 -- -- 87
2018-04-28 10:00:00 6.4 10 Oeste 22 Sudoeste 0 -- -- 88
2018-04-28 09:00:00 5.8 11 Oeste 20 Sudoeste 0 -- -- 91
2018-04-28 08:00:00 5.1 9 Sudoeste 17 Sudoeste 0 -- -- 95
2018-04-28 07:00:00 4.2 7 Sudoeste 15 Sudoeste 0 -- -- 94
2018-04-28 06:00:00 5 9 Sudoeste 14 Sudoeste 0 -- -- 91
2018-04-28 05:00:00 5.8 8 Sudoeste 13 Sudoeste 0 -- -- 92
2018-04-28 04:00:00 6 6 Oeste 12 Sudoeste 0 -- -- 88
2018-04-28 03:00:00 7.4 8 Oeste 14 Sudoeste 0 -- -- 85
2018-04-28 02:00:00 8 7 Sudoeste 12 Sudoeste 0 -- -- 86
2018-04-28 01:00:00 9 6 Oeste 14 Oeste 0 -- -- 79
2018-04-28 00:00:00 10.3 7 Oeste 15 Oeste 0 -- -- 72